createdAt,value
2019-03-28T00:02:04.268Z,26.42
2019-03-28T00:05:05.514Z,22.22
2019-03-28T00:08:03.227Z,27.32
2019-03-28T00:11:04.680Z,23.42
2019-03-28T00:14:05.937Z,18.80
2019-03-28T00:17:03.248Z,19.60
2019-03-28T00:20:04.328Z,27.67
2019-03-28T00:23:32.147Z,23.42
2019-03-28T00:26:33.198Z,24.20
2019-03-28T00:29:34.443Z,34.98
2019-03-28T00:32:35.432Z,22.37
2019-03-28T00:35:39.753Z,21.05
2019-03-28T00:38:41.258Z,17.57
2019-03-28T00:41:43.287Z,23.80
2019-03-28T00:44:44.521Z,30.72
2019-03-28T00:47:45.770Z,18.23
2019-03-28T00:50:47.015Z,18.73
2019-03-28T00:53:48.264Z,20.85
2019-03-28T00:56:49.513Z,17.98
2019-03-28T00:59:50.504Z,16.67
2019-03-28T01:02:51.761Z,19.37
2019-03-28T01:05:53.003Z,14.00
2019-03-28T01:08:54.249Z,15.60
2019-03-28T01:11:55.501Z,19.20
2019-03-28T01:14:57.996Z,16.95
2019-03-28T01:17:58.505Z,24.30
2019-03-28T01:20:59.751Z,15.88
2019-03-28T01:24:00.760Z,19.75
2019-03-28T01:27:01.739Z,17.70
2019-03-28T01:30:02.986Z,18.62
2019-03-28T01:33:04.233Z,19.15
2019-03-28T01:36:04.973Z,18.82
2019-03-28T01:39:10.148Z,25.32
2019-03-28T01:42:09.769Z,23.95
2019-03-28T01:45:11.019Z,18.20
2019-03-28T01:48:12.008Z,17.70
2019-03-28T01:51:13.000Z,27.50
2019-03-28T01:54:14.765Z,19.05
2019-03-28T01:57:16.009Z,19.82
2019-03-28T02:00:18.540Z,23.42
2019-03-28T02:03:19.797Z,16.65
2019-03-28T02:06:21.034Z,17.75
2019-03-28T02:09:22.794Z,23.38
2019-03-28T02:12:16.366Z,27.90
2019-03-28T02:15:17.870Z,27.25
2019-03-28T02:18:21.673Z,38.08
2019-03-28T02:21:22.920Z,19.10
2019-03-28T02:24:23.915Z,16.90
2019-03-28T02:27:25.973Z,20.15
2019-03-28T02:30:26.413Z,37.83
2019-03-28T02:33:27.401Z,43.90
2019-03-28T02:36:28.753Z,18.92
2019-03-28T02:39:29.642Z,19.82
2019-03-28T02:42:30.652Z,43.02
2019-03-28T02:45:31.628Z,43.02
2019-03-28T02:48:32.874Z,13.62
2019-03-28T02:51:34.121Z,16.15
2019-03-28T02:54:35.376Z,19.30
2019-03-28T02:57:41.803Z,17.32
2019-03-28T03:00:30.193Z,27.45
2019-03-28T03:03:23.759Z,16.97
2019-03-28T03:06:25.377Z,40.00
2019-03-28T03:09:26.249Z,31.37
2019-03-28T03:12:27.897Z,26.85
2019-03-28T03:15:30.114Z,21.80
2019-03-28T03:18:31.273Z,37.70
2019-03-28T03:21:32.267Z,42.75
2019-03-28T03:24:33.260Z,44.33
2019-03-28T03:27:34.763Z,36.20
2019-03-28T03:30:36.270Z,15.08
2019-03-28T03:33:37.989Z,43.30
2019-03-28T03:36:30.825Z,31.62
2019-03-28T03:39:32.335Z,12.35
2019-03-28T03:42:33.587Z,15.70
2019-03-28T03:45:27.161Z,18.52
2019-03-28T03:48:28.136Z,16.57
2019-03-28T03:51:29.387Z,12.70
2019-03-28T03:54:30.382Z,17.95
2019-03-28T03:57:25.896Z,16.02
2019-03-28T04:00:19.561Z,23.85
2019-03-28T04:03:20.810Z,19.25
2019-03-28T04:06:23.119Z,32.48
2019-03-28T04:09:20.400Z,19.45
2019-03-28T04:12:21.238Z,16.75
2019-03-28T04:15:22.480Z,36.08
2019-03-28T04:18:23.466Z,37.70
2019-03-28T04:21:24.460Z,16.15
2019-03-28T04:24:33.128Z,43.63
2019-03-28T04:27:34.377Z,36.73
2019-03-28T04:30:35.627Z,16.35
2019-03-28T04:33:36.615Z,22.13
2019-03-28T04:36:37.873Z,25.88
2019-03-28T04:39:38.856Z,14.60
2019-03-28T04:42:40.359Z,19.35
2019-03-28T04:45:41.360Z,42.25
2019-03-28T04:48:42.859Z,19.50
2019-03-28T04:51:43.854Z,23.40
2019-03-28T04:54:45.099Z,12.50
2019-03-28T04:57:48.653Z,25.00
2019-03-28T05:00:41.964Z,16.48
2019-03-28T05:03:43.215Z,14.68
2019-03-28T05:06:44.457Z,12.40
2019-03-28T05:09:41.864Z,35.95
2019-03-28T05:12:44.136Z,16.20
2019-03-28T05:15:55.885Z,15.00
2019-03-28T05:18:58.164Z,45.50
2019-03-28T05:22:00.174Z,33.80
2019-03-28T05:25:01.421Z,12.00
2019-03-28T05:28:02.672Z,29.95
2019-03-28T05:31:03.655Z,13.38
2019-03-28T05:34:05.162Z,27.25
2019-03-28T05:37:08.716Z,13.75
2019-03-28T05:40:10.003Z,35.75
2019-03-28T05:43:11.227Z,29.45
2019-03-28T05:46:12.203Z,13.68
2019-03-28T05:49:07.821Z,12.95
2019-03-28T05:52:17.513Z,11.80
2019-03-28T05:55:19.023Z,13.65
2019-03-28T05:58:20.007Z,11.08
2019-03-28T06:01:22.279Z,17.62
2019-03-28T06:04:23.528Z,45.70
2019-03-28T06:07:24.521Z,21.15
2019-03-28T06:10:26.025Z,27.02
2019-03-28T06:13:27.021Z,49.35
2019-03-28T06:16:28.267Z,40.23
2019-03-28T06:19:29.513Z,56.58
2019-03-28T06:22:32.300Z,55.78
2019-03-28T06:25:27.402Z,24.67
2019-03-28T06:28:32.744Z,19.70
2019-03-28T06:31:34.083Z,19.82
2019-03-28T06:34:34.986Z,18.57
2019-03-28T06:37:36.235Z,20.15
2019-03-28T06:40:37.481Z,16.93
2019-03-28T06:43:41.960Z,39.35
2019-03-28T06:46:41.000Z,19.30
2019-03-28T06:49:41.993Z,20.75
2019-03-28T06:52:43.241Z,21.17
2019-03-28T06:55:51.658Z,19.00
2019-03-28T06:58:52.905Z,32.58
2019-03-28T07:01:54.924Z,37.33
2019-03-28T07:04:56.387Z,31.35
2019-03-28T07:07:57.166Z,28.73
2019-03-28T07:10:58.419Z,28.40
2019-03-28T07:13:59.659Z,34.75
2019-03-28T07:17:00.650Z,39.00
2019-03-28T07:20:01.641Z,33.55
2019-03-28T07:23:03.146Z,33.75
2019-03-28T07:26:04.653Z,44.73
2019-03-28T07:29:05.899Z,38.33
2019-03-28T07:32:10.224Z,45.80
2019-03-28T07:35:11.468Z,43.20
2019-03-28T07:38:12.460Z,43.35
2019-03-28T07:41:16.281Z,49.83
2019-03-28T07:44:14.441Z,46.88
2019-03-28T07:47:18.766Z,43.85
2019-03-28T07:50:26.935Z,46.05
2019-03-28T07:53:28.939Z,48.23
2019-03-28T07:56:30.955Z,52.23
2019-03-28T07:59:34.508Z,47.78
2019-03-28T08:02:35.754Z,53.00
2019-03-28T08:05:31.115Z,46.35
2019-03-28T08:08:38.622Z,55.60
2019-03-28T08:11:35.520Z,55.15
2019-03-28T08:14:36.395Z,50.95
2019-03-28T08:17:44.816Z,44.75
2019-03-28T08:20:46.313Z,44.73
2019-03-28T08:23:50.640Z,48.23
2019-03-28T08:26:51.635Z,58.80
2019-03-28T08:29:52.620Z,44.48
2019-03-28T08:32:54.633Z,52.13
2019-03-28T08:35:55.631Z,43.15
2019-03-28T08:38:56.874Z,53.17
2019-03-28T08:41:58.123Z,48.23
2019-03-28T08:45:07.073Z,49.23
2019-03-28T08:48:08.554Z,44.73
2019-03-28T08:51:09.802Z,50.08
2019-03-28T08:54:10.792Z,43.87
2019-03-28T08:57:13.621Z,54.20
2019-03-28T09:00:16.357Z,53.60
2019-03-28T09:03:14.027Z,40.92
2019-03-28T09:06:17.065Z,46.48
2019-03-28T09:09:12.168Z,44.85
2019-03-28T09:12:05.479Z,52.58
2019-03-28T09:15:06.473Z,39.27
2019-03-28T09:18:10.128Z,30.50
2019-03-28T09:21:08.458Z,50.98
2019-03-28T09:24:09.716Z,51.45
2019-03-28T09:27:10.957Z,43.58
2019-03-28T09:30:12.204Z,46.92
2019-03-28T09:33:13.197Z,35.40
2019-03-28T09:36:14.453Z,47.67
2019-03-28T09:39:12.112Z,44.33
2019-03-28T09:42:13.362Z,40.05
2019-03-28T09:45:14.605Z,51.70
2019-03-28T09:48:17.136Z,49.88
2019-03-28T09:51:18.383Z,48.83
2019-03-28T09:54:19.631Z,45.70
2019-03-28T09:57:20.879Z,42.53
2019-03-28T10:00:22.138Z,33.15
2019-03-28T10:03:23.628Z,47.93
2019-03-28T10:06:18.484Z,34.92
2019-03-28T10:09:19.734Z,38.85
2019-03-28T10:12:24.302Z,41.23
2019-03-28T10:16:21.358Z,39.90
2019-03-28T10:19:22.607Z,47.67
2019-03-28T10:22:24.110Z,40.15
2019-03-28T10:25:26.394Z,48.33
2019-03-28T10:28:30.191Z,47.80
2019-03-28T10:31:31.692Z,34.55
2019-03-28T10:34:32.683Z,41.48
2019-03-28T10:37:34.191Z,45.40
2019-03-28T10:40:36.471Z,41.10
2019-03-28T10:43:37.458Z,37.50
2019-03-28T10:46:39.462Z,39.92
2019-03-28T10:49:41.461Z,47.30
2019-03-28T10:52:48.365Z,27.50
2019-03-28T10:55:44.039Z,35.95
2019-03-28T10:58:48.296Z,35.55
2019-03-28T11:01:50.897Z,43.98
2019-03-28T11:04:58.731Z,37.03
2019-03-28T11:07:59.721Z,36.13
2019-03-28T11:11:00.712Z,34.33
2019-03-28T11:14:01.709Z,29.15
2019-03-28T11:17:02.703Z,44.08
2019-03-28T11:20:06.250Z,36.63
2019-03-28T11:23:09.804Z,42.60
2019-03-28T11:26:13.354Z,36.75
2019-03-28T11:29:14.345Z,35.17
2019-03-28T11:32:15.337Z,36.80
2019-03-28T11:35:16.840Z,31.90
2019-03-28T11:38:17.834Z,42.65
2019-03-28T11:41:19.339Z,27.93
2019-03-28T11:44:20.586Z,46.63
2019-03-28T11:47:22.363Z,29.65
2019-03-28T11:50:23.084Z,36.30
2019-03-28T11:53:23.819Z,37.38
2019-03-28T11:56:25.064Z,39.23
2019-03-28T11:59:26.059Z,32.53
2019-03-28T12:02:20.602Z,44.48
2019-03-28T12:05:20.360Z,49.85
2019-03-28T12:08:21.351Z,36.58
2019-03-28T12:11:22.344Z,27.15
2019-03-28T12:14:23.344Z,52.48
2019-03-28T12:17:25.610Z,42.48
2019-03-28T12:20:26.857Z,36.48
2019-03-28T12:23:27.851Z,29.72
2019-03-28T12:26:30.634Z,29.27
2019-03-28T12:29:35.631Z,43.00
2019-03-28T12:32:34.412Z,33.13
2019-03-28T12:35:27.977Z,30.95
2019-03-28T12:38:28.967Z,24.67
2019-03-28T12:41:29.968Z,29.65
2019-03-28T12:44:31.207Z,28.32
2019-03-28T12:47:24.779Z,31.80
2019-03-28T12:50:26.025Z,27.05
2019-03-28T12:53:23.175Z,21.00
2019-03-28T12:56:29.033Z,27.17
2019-03-28T12:59:22.611Z,32.90
2019-03-28T13:02:31.349Z,38.63
2019-03-28T13:05:24.843Z,26.02
2019-03-28T13:08:26.092Z,35.85
2019-03-28T13:11:27.082Z,27.50
2019-03-28T13:14:31.096Z,34.70
2019-03-28T13:17:30.088Z,33.38
2019-03-28T13:20:31.081Z,31.87
2019-03-28T13:23:32.334Z,40.43
2019-03-28T13:26:33.321Z,29.98
2019-03-28T13:29:34.313Z,29.55
2019-03-28T13:32:41.842Z,30.65
2019-03-28T13:35:36.809Z,34.50
2019-03-28T13:38:37.800Z,31.93
2019-03-28T13:41:40.072Z,34.88
2019-03-28T13:44:41.321Z,27.40
2019-03-28T13:47:42.824Z,36.10
2019-03-28T13:50:44.073Z,28.30
2019-03-28T13:53:45.320Z,37.88
2019-03-28T13:56:42.599Z,29.98
2019-03-28T13:59:43.724Z,32.55
2019-03-28T14:02:55.512Z,31.25
2019-03-28T14:05:45.705Z,28.32
2019-03-28T14:08:54.633Z,35.08
2019-03-28T14:11:56.653Z,26.52
2019-03-28T14:14:57.644Z,29.50
2019-03-28T14:17:58.633Z,30.40
2019-03-28T14:20:59.879Z,36.03
2019-03-28T14:24:00.878Z,30.50
2019-03-28T14:27:01.865Z,36.45
2019-03-28T14:30:02.863Z,39.18
2019-03-28T14:33:11.077Z,35.70
2019-03-28T14:36:04.839Z,43.85
2019-03-28T14:39:05.579Z,29.40
2019-03-28T14:42:06.571Z,39.05
2019-03-28T14:45:07.562Z,39.40
2019-03-28T14:48:08.552Z,30.15
2019-03-28T14:51:10.711Z,31.27
2019-03-28T14:54:11.560Z,36.88
2019-03-28T14:57:12.553Z,38.48
2019-03-28T15:00:13.799Z,36.35
2019-03-28T15:03:07.370Z,27.60
2019-03-28T15:06:08.617Z,35.10
2019-03-28T15:09:11.660Z,31.02
2019-03-28T15:12:12.648Z,31.42
2019-03-28T15:15:13.640Z,31.25
2019-03-28T15:18:14.632Z,31.68
2019-03-28T15:21:15.624Z,33.92
2019-03-28T15:24:16.880Z,34.83
2019-03-28T15:27:19.149Z,30.85
2019-03-28T15:30:20.136Z,24.37
2019-03-28T15:33:21.387Z,27.32
2019-03-28T15:36:23.454Z,32.73
2019-03-28T15:39:25.673Z,22.05
2019-03-28T15:42:28.122Z,29.35
2019-03-28T15:45:29.192Z,32.95
2019-03-28T15:48:30.459Z,26.68
2019-03-28T15:51:31.433Z,22.75
2019-03-28T15:54:32.425Z,24.55
2019-03-28T15:57:33.420Z,30.08
2019-03-28T16:00:38.251Z,28.60
2019-03-28T16:03:52.026Z,23.62
2019-03-28T16:06:43.410Z,25.15
2019-03-28T16:09:42.262Z,21.93
2019-03-28T16:12:50.418Z,25.68
2019-03-28T16:15:51.401Z,23.22
2019-03-28T16:18:52.391Z,30.17
2019-03-28T16:21:56.887Z,23.90
2019-03-28T16:24:55.923Z,25.17
2019-03-28T16:27:56.915Z,18.10
2019-03-28T16:31:00.151Z,23.55
2019-03-28T16:34:07.143Z,24.92
2019-03-28T16:37:02.696Z,22.77
2019-03-28T16:40:04.120Z,21.85
2019-03-28T16:43:00.840Z,23.83
2019-03-28T16:46:01.833Z,22.00
2019-03-28T16:49:02.572Z,24.35
2019-03-28T16:52:03.562Z,20.43
2019-03-28T16:55:07.111Z,29.72
2019-03-28T16:58:08.104Z,31.45
2019-03-28T17:01:09.352Z,27.32
2019-03-28T17:04:20.127Z,21.65
2019-03-28T17:07:03.659Z,20.45
2019-03-28T17:10:13.098Z,29.70
2019-03-28T17:13:14.346Z,20.68
2019-03-28T17:16:16.725Z,29.80
2019-03-28T17:19:16.843Z,25.50
2019-03-28T17:22:19.113Z,20.35
2019-03-28T17:25:20.113Z,21.70
2019-03-28T17:28:21.097Z,22.87
2019-03-28T17:31:22.601Z,23.65
2019-03-28T17:34:34.070Z,27.80
2019-03-28T17:37:25.864Z,21.15
2019-03-28T17:40:27.117Z,25.72
2019-03-28T17:43:28.364Z,26.62
2019-03-28T17:46:37.033Z,20.85
2019-03-28T17:49:38.029Z,22.25
2019-03-28T17:52:42.097Z,23.87
2019-03-28T17:55:46.161Z,24.92
2019-03-28T17:58:47.404Z,23.32
2019-03-28T18:01:48.647Z,19.32
2019-03-28T18:04:50.921Z,26.65
2019-03-28T18:07:44.497Z,19.12
2019-03-28T18:10:38.062Z,19.92
2019-03-28T18:13:40.071Z,18.55
2019-03-28T18:16:41.064Z,22.55
2019-03-28T18:19:34.633Z,20.40
2019-03-28T18:22:35.879Z,16.93
2019-03-28T18:25:37.130Z,17.42
2019-03-28T18:28:38.130Z,25.10
2019-03-28T18:31:49.732Z,21.62
2019-03-28T18:34:41.386Z,29.87
2019-03-28T18:37:42.377Z,23.10
2019-03-28T18:40:35.945Z,25.60
2019-03-28T18:43:37.190Z,16.57
2019-03-28T18:46:36.148Z,31.75
2019-03-28T18:49:37.385Z,26.42
2019-03-28T18:52:38.889Z,19.92
2019-03-28T18:55:40.395Z,36.00
2019-03-28T18:58:41.649Z,32.85
2019-03-28T19:01:42.888Z,21.70
2019-03-28T19:04:44.140Z,22.45
2019-03-28T19:07:45.386Z,35.63
2019-03-28T19:10:46.377Z,29.25
2019-03-28T19:13:47.879Z,23.47
2019-03-28T19:16:52.095Z,29.02
2019-03-28T19:19:50.123Z,32.38
2019-03-28T19:22:50.209Z,33.02
2019-03-28T19:25:49.291Z,34.10
2019-03-28T19:28:56.081Z,35.30
2019-03-28T19:31:56.639Z,32.35
2019-03-28T19:34:51.242Z,36.45
2019-03-28T19:37:52.490Z,37.42
2019-03-28T19:40:54.249Z,34.13
2019-03-28T19:43:59.858Z,33.55
2019-03-28T19:47:00.840Z,35.13
2019-03-28T19:50:01.847Z,32.17
2019-03-28T19:53:03.344Z,35.25
2019-03-28T19:56:04.591Z,33.83
2019-03-28T19:59:09.162Z,36.48
2019-03-28T20:02:10.160Z,33.23
2019-03-28T20:05:11.402Z,38.10
2019-03-28T20:08:15.820Z,40.12
2019-03-28T20:11:14.708Z,33.13
2019-03-28T20:14:16.172Z,34.83
2019-03-28T20:17:18.441Z,39.00
2019-03-28T20:20:15.850Z,32.33
2019-03-28T20:23:16.841Z,36.80
2019-03-28T20:26:19.881Z,28.62
2019-03-28T20:29:19.339Z,25.55
2019-03-28T20:32:20.586Z,28.67
2019-03-28T20:35:25.052Z,32.98
2019-03-28T20:38:23.342Z,35.85
2019-03-28T20:41:25.617Z,40.38
2019-03-28T20:44:26.601Z,39.40
2019-03-28T20:47:27.595Z,42.20
2019-03-28T20:50:21.165Z,34.55
2019-03-28T20:53:23.436Z,34.63
2019-03-28T20:56:25.448Z,31.27
2019-03-28T20:59:26.697Z,29.70
2019-03-28T21:02:31.786Z,32.03
2019-03-28T21:05:25.612Z,33.92
2019-03-28T21:08:26.604Z,37.60
2019-03-28T21:11:29.530Z,38.45
2019-03-28T21:14:28.841Z,29.07
2019-03-28T21:17:32.141Z,23.77
2019-03-28T21:20:31.087Z,30.88
2019-03-28T21:23:28.234Z,29.00
2019-03-28T21:26:29.480Z,29.75
2019-03-28T21:29:33.800Z,24.05
2019-03-28T21:32:31.978Z,36.28
2019-03-28T21:35:34.249Z,26.90
2019-03-28T21:38:35.498Z,28.20
2019-03-28T21:41:39.575Z,29.98
2019-03-28T21:44:40.557Z,30.52
2019-03-28T21:47:41.802Z,27.90
2019-03-28T21:50:42.794Z,24.87
2019-03-28T21:53:43.788Z,29.80
2019-03-28T21:56:42.324Z,24.55
2019-03-28T21:59:43.728Z,25.37
2019-03-28T22:02:44.720Z,25.72
2019-03-28T22:05:38.282Z,25.77
2019-03-28T22:08:35.702Z,24.98
2019-03-28T22:11:37.193Z,26.60
2019-03-28T22:14:39.824Z,27.22
2019-03-28T22:17:42.090Z,24.37
2019-03-28T22:20:43.701Z,22.42
2019-03-28T22:23:43.729Z,23.12
2019-03-28T22:26:47.788Z,22.00
2019-03-28T22:29:49.033Z,27.73
2019-03-28T22:32:47.442Z,34.90
2019-03-28T22:35:48.467Z,26.23
2019-03-28T22:38:49.705Z,30.85
2019-03-28T22:41:50.957Z,23.35
2019-03-28T22:44:51.688Z,21.25
2019-03-28T22:47:53.772Z,26.05
2019-03-28T22:50:55.722Z,28.20
2019-03-28T22:53:57.997Z,22.58
2019-03-28T22:56:59.499Z,27.07
2019-03-28T23:00:04.379Z,25.77
2019-03-28T23:03:04.298Z,43.25
2019-03-28T23:06:05.567Z,21.87
2019-03-28T23:09:02.954Z,28.38
2019-03-28T23:12:03.945Z,29.57
2019-03-28T23:15:05.193Z,24.10
2019-03-28T23:18:06.187Z,25.52
2019-03-28T23:21:07.179Z,27.10
2019-03-28T23:24:08.681Z,23.02
2019-03-28T23:27:09.690Z,29.10
2019-03-28T23:30:10.919Z,21.50
2019-03-28T23:33:12.169Z,30.30
2019-03-28T23:36:16.846Z,26.97
2019-03-28T23:39:17.738Z,26.00
2019-03-28T23:42:18.990Z,21.85
2019-03-28T23:45:20.017Z,26.60
2019-03-28T23:48:21.824Z,25.43
2019-03-28T23:51:22.473Z,23.57
2019-03-28T23:54:23.468Z,41.92
2019-03-28T23:57:24.714Z,29.27
